sensor_id;sensor_type;location;lat;lon;timestamp;temperature;humidity
1447;DHT22;717;51.522;7.266;2023-02-21T00:00:59;11.60;99.90
1447;DHT22;717;51.522;7.266;2023-02-21T00:03:40;11.50;99.90
1447;DHT22;717;51.522;7.266;2023-02-21T00:06:22;11.40;99.90
1447;DHT22;717;51.522;7.266;2023-02-21T00:09:03;11.50;99.90
1447;DHT22;717;51.522;7.266;2023-02-21T00:11:47;11.50;99.90
1447;DHT22;717;51.522;7.266;2023-02-21T00:14:28;11.50;99.90
1447;DHT22;717;51.522;7.266;2023-02-21T00:17:09;11.60;99.90
1447;DHT22;717;51.522;7.266;2023-02-21T00:19:50;11.70;99.90
1447;DHT22;717;51.522;7.266;2023-02-21T00:22:31;11.60;99.90
1447;DHT22;717;51.522;7.266;2023-02-21T00:25:12;11.60;99.90
1447;DHT22;717;51.522;7.266;2023-02-21T00:27:56;11.60;99.90
1447;DHT22;717;51.522;7.266;2023-02-21T00:30:39;11.60;99.90
1447;DHT22;717;51.522;7.266;2023-02-21T00:33:20;11.60;99.90
1447;DHT22;717;51.522;7.266;2023-02-21T00:36:01;11.60;99.90
1447;DHT22;717;51.522;7.266;2023-02-21T00:38:42;11.60;99.90
1447;DHT22;717;51.522;7.266;2023-02-21T00:41:23;11.60;99.90
1447;DHT22;717;51.522;7.266;2023-02-21T00:44:07;11.70;99.90
1447;DHT22;717;51.522;7.266;2023-02-21T00:46:48;11.70;99.90
1447;DHT22;717;51.522;7.266;2023-02-21T00:49:29;11.50;99.90
1447;DHT22;717;51.522;7.266;2023-02-21T00:52:10;11.50;99.90
1447;DHT22;717;51.522;7.266;2023-02-21T00:54:51;11.50;99.90
1447;DHT22;717;51.522;7.266;2023-02-21T00:57:32;11.50;99.90
1447;DHT22;717;51.522;7.266;2023-02-21T01:00:19;11.50;99.90
1447;DHT22;717;51.522;7.266;2023-02-21T01:03:00;11.50;99.90
1447;DHT22;717;51.522;7.266;2023-02-21T01:05:41;11.50;99.90
1447;DHT22;717;51.522;7.266;2023-02-21T01:08:22;11.50;99.90
1447;DHT22;717;51.522;7.266;2023-02-21T01:11:04;11.50;99.90
1447;DHT22;717;51.522;7.266;2023-02-21T01:13:45;11.60;99.90
1447;DHT22;717;51.522;7.266;2023-02-21T01:16:30;11.60;99.90
1447;DHT22;717;51.522;7.266;2023-02-21T01:19:11;11.60;99.90
1447;DHT22;717;51.522;7.266;2023-02-21T01:21:52;11.60;99.90
1447;DHT22;717;51.522;7.266;2023-02-21T01:24:34;11.70;99.90
1447;DHT22;717;51.522;7.266;2023-02-21T01:27:15;11.70;99.90
1447;DHT22;717;51.522;7.266;2023-02-21T01:29:56;11.60;99.90
1447;DHT22;717;51.522;7.266;2023-02-21T01:32:39;11.60;99.90
1447;DHT22;717;51.522;7.266;2023-02-21T01:35:20;11.60;99.90
1447;DHT22;717;51.522;7.266;2023-02-21T01:38:01;11.60;99.90
1447;DHT22;717;51.522;7.266;2023-02-21T01:40:43;11.60;99.90
1447;DHT22;717;51.522;7.266;2023-02-21T01:43:25;11.60;99.90
1447;DHT22;717;51.522;7.266;2023-02-21T01:46:08;11.60;99.90
1447;DHT22;717;51.522;7.266;2023-02-21T01:48:54;11.60;99.90
1447;DHT22;717;51.522;7.266;2023-02-21T01:51:38;11.60;99.90
1447;DHT22;717;51.522;7.266;2023-02-21T01:54:20;11.60;99.90
1447;DHT22;717;51.522;7.266;2023-02-21T01:57:02;11.60;99.90
1447;DHT22;717;51.522;7.266;2023-02-21T01:59:44;11.70;99.90
1447;DHT22;717;51.522;7.266;2023-02-21T02:02:29;11.70;99.90
1447;DHT22;717;51.522;7.266;2023-02-21T02:05:14;11.70;99.90
1447;DHT22;717;51.522;7.266;2023-02-21T02:07:56;11.70;99.90
1447;DHT22;717;51.522;7.266;2023-02-21T02:10:37;11.70;99.90
1447;DHT22;717;51.522;7.266;2023-02-21T02:13:29;11.70;99.90
1447;DHT22;717;51.522;7.266;2023-02-21T02:16:02;11.60;99.90
1447;DHT22;717;51.522;7.266;2023-02-21T02:18:50;11.50;99.90
1447;DHT22;717;51.522;7.266;2023-02-21T02:27:41;11.60;99.90
1447;DHT22;717;51.522;7.266;2023-02-21T02:33:40;11.60;99.90
1447;DHT22;717;51.522;7.266;2023-02-21T02:36:19;11.70;99.90
1447;DHT22;717;51.522;7.266;2023-02-21T02:38:56;11.60;99.90
1447;DHT22;717;51.522;7.266;2023-02-21T02:41:32;11.60;99.90
1447;DHT22;717;51.522;7.266;2023-02-21T02:44:08;11.60;99.90
1447;DHT22;717;51.522;7.266;2023-02-21T02:46:40;11.60;99.90
1447;DHT22;717;51.522;7.266;2023-02-21T02:49:15;11.60;99.90
1447;DHT22;717;51.522;7.266;2023-02-21T02:51:47;11.70;99.90
1447;DHT22;717;51.522;7.266;2023-02-21T02:54:16;11.70;99.90
1447;DHT22;717;51.522;7.266;2023-02-21T02:56:46;11.70;99.90
1447;DHT22;717;51.522;7.266;2023-02-21T02:59:18;11.60;99.90
1447;DHT22;717;51.522;7.266;2023-02-21T03:02:12;11.60;99.90
1447;DHT22;717;51.522;7.266;2023-02-21T03:04:58;11.60;99.90
1447;DHT22;717;51.522;7.266;2023-02-21T03:07:38;11.70;99.90
1447;DHT22;717;51.522;7.266;2023-02-21T03:10:14;11.70;99.90
1447;DHT22;717;51.522;7.266;2023-02-21T03:12:49;11.70;99.90
1447;DHT22;717;51.522;7.266;2023-02-21T03:15:21;11.70;99.90
1447;DHT22;717;51.522;7.266;2023-02-21T03:17:56;11.70;99.90
1447;DHT22;717;51.522;7.266;2023-02-21T03:20:27;11.70;99.90
1447;DHT22;717;51.522;7.266;2023-02-21T03:23:02;11.80;99.90
1447;DHT22;717;51.522;7.266;2023-02-21T03:25:32;11.70;99.90
1447;DHT22;717;51.522;7.266;2023-02-21T03:28:02;11.70;99.90
1447;DHT22;717;51.522;7.266;2023-02-21T03:30:31;11.80;99.90
1447;DHT22;717;51.522;7.266;2023-02-21T03:33:00;11.80;99.90
1447;DHT22;717;51.522;7.266;2023-02-21T03:35:29;11.80;99.90
1447;DHT22;717;51.522;7.266;2023-02-21T03:38:00;11.90;99.90
1447;DHT22;717;51.522;7.266;2023-02-21T03:40:31;11.90;99.90
1447;DHT22;717;51.522;7.266;2023-02-21T03:43:01;11.90;99.90
1447;DHT22;717;51.522;7.266;2023-02-21T03:45:31;11.90;99.90
1447;DHT22;717;51.522;7.266;2023-02-21T03:48:01;11.90;99.90
1447;DHT22;717;51.522;7.266;2023-02-21T03:50:29;11.80;99.90
1447;DHT22;717;51.522;7.266;2023-02-21T03:53:00;11.80;99.90
1447;DHT22;717;51.522;7.266;2023-02-21T03:55:29;11.80;99.90
1447;DHT22;717;51.522;7.266;2023-02-21T03:57:57;11.90;99.90
1447;DHT22;717;51.522;7.266;2023-02-21T04:00:26;11.80;99.90
1447;DHT22;717;51.522;7.266;2023-02-21T04:02:54;11.80;99.90
1447;DHT22;717;51.522;7.266;2023-02-21T04:05:23;11.80;99.90
1447;DHT22;717;51.522;7.266;2023-02-21T04:07:51;11.90;99.90
1447;DHT22;717;51.522;7.266;2023-02-21T04:10:22;11.90;99.90
1447;DHT22;717;51.522;7.266;2023-02-21T04:12:51;11.80;99.90
1447;DHT22;717;51.522;7.266;2023-02-21T04:15:19;11.70;99.90
1447;DHT22;717;51.522;7.266;2023-02-21T04:17:48;11.70;99.90
1447;DHT22;717;51.522;7.266;2023-02-21T04:20:17;11.80;99.90
1447;DHT22;717;51.522;7.266;2023-02-21T04:22:45;11.80;99.90
1447;DHT22;717;51.522;7.266;2023-02-21T04:25:14;11.70;99.90
1447;DHT22;717;51.522;7.266;2023-02-21T04:27:45;11.70;99.90
1447;DHT22;717;51.522;7.266;2023-02-21T04:30:14;11.70;99.90
1447;DHT22;717;51.522;7.266;2023-02-21T04:32:43;11.80;99.90
1447;DHT22;717;51.522;7.266;2023-02-21T04:35:11;11.60;99.90
1447;DHT22;717;51.522;7.266;2023-02-21T04:37:40;11.60;99.90
1447;DHT22;717;51.522;7.266;2023-02-21T04:40:10;11.50;99.90
1447;DHT22;717;51.522;7.266;2023-02-21T04:42:38;11.50;99.90
1447;DHT22;717;51.522;7.266;2023-02-21T04:45:10;11.50;99.90
1447;DHT22;717;51.522;7.266;2023-02-21T04:47:38;11.40;99.90
1447;DHT22;717;51.522;7.266;2023-02-21T04:50:07;11.40;99.90
1447;DHT22;717;51.522;7.266;2023-02-21T04:52:36;11.40;99.90
1447;DHT22;717;51.522;7.266;2023-02-21T04:55:06;11.50;99.90
1447;DHT22;717;51.522;7.266;2023-02-21T04:57:34;11.50;99.90
1447;DHT22;717;51.522;7.266;2023-02-21T05:00:03;11.50;99.90
1447;DHT22;717;51.522;7.266;2023-02-21T05:02:35;11.50;99.90
1447;DHT22;717;51.522;7.266;2023-02-21T05:05:04;11.50;99.90
1447;DHT22;717;51.522;7.266;2023-02-21T05:07:33;11.50;99.90
1447;DHT22;717;51.522;7.266;2023-02-21T05:10:02;11.50;99.90
1447;DHT22;717;51.522;7.266;2023-02-21T05:12:31;11.50;99.90
1447;DHT22;717;51.522;7.266;2023-02-21T05:14:59;11.50;99.90
1447;DHT22;717;51.522;7.266;2023-02-21T05:17:28;11.50;99.90
1447;DHT22;717;51.522;7.266;2023-02-21T05:19:59;11.60;99.90
1447;DHT22;717;51.522;7.266;2023-02-21T05:22:28;11.60;99.90
1447;DHT22;717;51.522;7.266;2023-02-21T05:24:57;11.70;99.90
1447;DHT22;717;51.522;7.266;2023-02-21T05:27:25;11.70;99.90
1447;DHT22;717;51.522;7.266;2023-02-21T05:29:54;11.70;99.90
1447;DHT22;717;51.522;7.266;2023-02-21T05:32:22;11.70;99.90
1447;DHT22;717;51.522;7.266;2023-02-21T05:34:54;11.70;99.90
1447;DHT22;717;51.522;7.266;2023-02-21T05:37:25;11.70;99.90
1447;DHT22;717;51.522;7.266;2023-02-21T05:39:54;11.80;99.90
1447;DHT22;717;51.522;7.266;2023-02-21T05:42:22;11.80;99.90
1447;DHT22;717;51.522;7.266;2023-02-21T05:44:51;11.80;99.90
1447;DHT22;717;51.522;7.266;2023-02-21T05:47:19;11.80;99.90
1447;DHT22;717;51.522;7.266;2023-02-21T05:49:48;11.80;99.90
1447;DHT22;717;51.522;7.266;2023-02-21T05:52:16;11.80;99.90
1447;DHT22;717;51.522;7.266;2023-02-21T05:54:47;11.80;99.90
1447;DHT22;717;51.522;7.266;2023-02-21T05:57:17;11.80;99.90
1447;DHT22;717;51.522;7.266;2023-02-21T05:59:46;11.80;99.90
1447;DHT22;717;51.522;7.266;2023-02-21T06:02:14;11.80;99.90
1447;DHT22;717;51.522;7.266;2023-02-21T06:04:43;11.80;99.90
1447;DHT22;717;51.522;7.266;2023-02-21T06:07:12;11.90;99.90
1447;DHT22;717;51.522;7.266;2023-02-21T06:09:41;11.90;99.90
1447;DHT22;717;51.522;7.266;2023-02-21T06:12:12;11.90;99.90
1447;DHT22;717;51.522;7.266;2023-02-21T06:14:40;11.90;99.90
1447;DHT22;717;51.522;7.266;2023-02-21T06:17:09;11.90;99.90
1447;DHT22;717;51.522;7.266;2023-02-21T06:19:37;11.80;99.90
1447;DHT22;717;51.522;7.266;2023-02-21T06:22:06;11.70;99.90
1447;DHT22;717;51.522;7.266;2023-02-21T06:24:35;11.60;99.90
1447;DHT22;717;51.522;7.266;2023-02-21T06:27:03;11.60;99.90
1447;DHT22;717;51.522;7.266;2023-02-21T06:29:34;11.50;99.90
1447;DHT22;717;51.522;7.266;2023-02-21T06:32:04;11.50;99.90
1447;DHT22;717;51.522;7.266;2023-02-21T06:34:33;11.50;99.90
1447;DHT22;717;51.522;7.266;2023-02-21T06:37:01;11.50;99.90
1447;DHT22;717;51.522;7.266;2023-02-21T06:39:31;11.50;99.90
1447;DHT22;717;51.522;7.266;2023-02-21T06:42:00;11.50;99.90
1447;DHT22;717;51.522;7.266;2023-02-21T06:44:28;11.60;99.90
1447;DHT22;717;51.522;7.266;2023-02-21T06:46:59;11.60;99.90
1447;DHT22;717;51.522;7.266;2023-02-21T06:49:28;11.70;99.90
1447;DHT22;717;51.522;7.266;2023-02-21T06:51:57;11.70;99.90
1447;DHT22;717;51.522;7.266;2023-02-21T06:54:25;11.70;99.90
1447;DHT22;717;51.522;7.266;2023-02-21T06:56:54;11.60;99.90
1447;DHT22;717;51.522;7.266;2023-02-21T06:59:23;11.60;99.90
1447;DHT22;717;51.522;7.266;2023-02-21T07:01:52;11.60;99.90
1447;DHT22;717;51.522;7.266;2023-02-21T07:04:23;11.50;99.90
1447;DHT22;717;51.522;7.266;2023-02-21T07:06:52;11.50;99.90
1447;DHT22;717;51.522;7.266;2023-02-21T07:09:21;11.50;99.90
1447;DHT22;717;51.522;7.266;2023-02-21T07:11:49;11.50;99.90
1447;DHT22;717;51.522;7.266;2023-02-21T07:14:18;11.50;99.90
1447;DHT22;717;51.522;7.266;2023-02-21T07:16:46;11.50;99.90
1447;DHT22;717;51.522;7.266;2023-02-21T07:19:15;11.60;99.90
1447;DHT22;717;51.522;7.266;2023-02-21T07:21:47;11.60;99.90
1447;DHT22;717;51.522;7.266;2023-02-21T07:24:16;11.60;99.90
1447;DHT22;717;51.522;7.266;2023-02-21T07:26:44;11.60;99.90
1447;DHT22;717;51.522;7.266;2023-02-21T07:29:13;11.60;99.90
1447;DHT22;717;51.522;7.266;2023-02-21T07:31:41;11.60;99.90
1447;DHT22;717;51.522;7.266;2023-02-21T07:34:10;11.60;99.90
1447;DHT22;717;51.522;7.266;2023-02-21T07:36:40;11.60;99.90
1447;DHT22;717;51.522;7.266;2023-02-21T07:39:11;11.60;99.90
1447;DHT22;717;51.522;7.266;2023-02-21T07:41:40;11.60;99.90
1447;DHT22;717;51.522;7.266;2023-02-21T07:44:09;11.70;99.90
1447;DHT22;717;51.522;7.266;2023-02-21T07:46:37;11.70;99.90
1447;DHT22;717;51.522;7.266;2023-02-21T07:49:07;11.70;99.90
1447;DHT22;717;51.522;7.266;2023-02-21T07:51:36;11.70;99.90
1447;DHT22;717;51.522;7.266;2023-02-21T07:54:05;11.80;99.90
1447;DHT22;717;51.522;7.266;2023-02-21T07:56:41;11.80;99.90
1447;DHT22;717;51.522;7.266;2023-02-21T07:59:10;11.80;99.90
1447;DHT22;717;51.522;7.266;2023-02-21T08:01:39;11.70;99.90
1447;DHT22;717;51.522;7.266;2023-02-21T08:04:08;11.60;99.90
1447;DHT22;717;51.522;7.266;2023-02-21T08:06:37;11.50;99.90
1447;DHT22;717;51.522;7.266;2023-02-21T08:09:06;11.50;99.90
1447;DHT22;717;51.522;7.266;2023-02-21T08:11:37;11.50;99.90
1447;DHT22;717;51.522;7.266;2023-02-21T08:14:06;11.40;99.90
1447;DHT22;717;51.522;7.266;2023-02-21T08:16:35;11.50;99.90
1447;DHT22;717;51.522;7.266;2023-02-21T08:19:04;11.50;99.90
1447;DHT22;717;51.522;7.266;2023-02-21T08:21:34;11.40;99.90
1447;DHT22;717;51.522;7.266;2023-02-21T08:24:03;11.30;99.90
1447;DHT22;717;51.522;7.266;2023-02-21T08:26:32;11.30;99.90
1447;DHT22;717;51.522;7.266;2023-02-21T08:29:03;11.30;99.90
1447;DHT22;717;51.522;7.266;2023-02-21T08:31:34;11.30;99.90
1447;DHT22;717;51.522;7.266;2023-02-21T08:34:03;11.40;99.90
1447;DHT22;717;51.522;7.266;2023-02-21T08:36:33;11.40;99.90
1447;DHT22;717;51.522;7.266;2023-02-21T08:39:03;11.40;99.90
1447;DHT22;717;51.522;7.266;2023-02-21T08:41:36;11.40;99.90
1447;DHT22;717;51.522;7.266;2023-02-21T08:44:08;11.30;99.90
1447;DHT22;717;51.522;7.266;2023-02-21T08:46:37;11.30;99.90
1447;DHT22;717;51.522;7.266;2023-02-21T08:49:06;11.30;99.90
1447;DHT22;717;51.522;7.266;2023-02-21T08:51:35;11.20;99.90
1447;DHT22;717;51.522;7.266;2023-02-21T08:54:05;11.30;99.90
1447;DHT22;717;51.522;7.266;2023-02-21T08:56:34;11.30;99.90
1447;DHT22;717;51.522;7.266;2023-02-21T08:59:03;11.30;99.90
1447;DHT22;717;51.522;7.266;2023-02-21T09:01:36;11.20;99.90
1447;DHT22;717;51.522;7.266;2023-02-21T09:04:05;11.20;99.90
1447;DHT22;717;51.522;7.266;2023-02-21T09:06:33;11.20;99.90
1447;DHT22;717;51.522;7.266;2023-02-21T09:09:02;11.20;99.90
1447;DHT22;717;51.522;7.266;2023-02-21T09:11:31;11.30;99.90
1447;DHT22;717;51.522;7.266;2023-02-21T09:13:59;11.30;99.90
1447;DHT22;717;51.522;7.266;2023-02-21T09:16:30;11.30;99.90
1447;DHT22;717;51.522;7.266;2023-02-21T09:19:02;11.30;99.90
1447;DHT22;717;51.522;7.266;2023-02-21T09:21:31;11.20;99.90
1447;DHT22;717;51.522;7.266;2023-02-21T09:24:00;11.20;99.90
1447;DHT22;717;51.522;7.266;2023-02-21T09:26:30;11.30;99.90
1447;DHT22;717;51.522;7.266;2023-02-21T09:28:59;11.30;99.90
1447;DHT22;717;51.522;7.266;2023-02-21T09:31:27;11.30;99.90
1447;DHT22;717;51.522;7.266;2023-02-21T09:33:56;11.40;99.90
1447;DHT22;717;51.522;7.266;2023-02-21T09:36:27;11.40;99.90
1447;DHT22;717;51.522;7.266;2023-02-21T09:38:55;11.50;99.90
1447;DHT22;717;51.522;7.266;2023-02-21T09:41:24;11.50;99.90
1447;DHT22;717;51.522;7.266;2023-02-21T09:43:53;11.60;99.90
1447;DHT22;717;51.522;7.266;2023-02-21T09:46:30;11.60;99.90
1447;DHT22;717;51.522;7.266;2023-02-21T09:49:00;11.60;99.90
1447;DHT22;717;51.522;7.266;2023-02-21T09:51:34;11.70;99.90
1447;DHT22;717;51.522;7.266;2023-02-21T09:54:12;11.70;99.90
1447;DHT22;717;51.522;7.266;2023-02-21T09:56:44;11.60;99.90
1447;DHT22;717;51.522;7.266;2023-02-21T09:59:13;11.60;99.90
1447;DHT22;717;51.522;7.266;2023-02-21T10:01:52;11.50;99.90
1447;DHT22;717;51.522;7.266;2023-02-21T10:04:31;11.50;99.90
1447;DHT22;717;51.522;7.266;2023-02-21T10:07:10;11.50;99.90
1447;DHT22;717;51.522;7.266;2023-02-21T10:09:45;11.50;99.90
1447;DHT22;717;51.522;7.266;2023-02-21T10:12:22;11.50;99.90
1447;DHT22;717;51.522;7.266;2023-02-21T10:17:51;11.50;99.90
1447;DHT22;717;51.522;7.266;2023-02-21T10:20:31;11.50;99.90
1447;DHT22;717;51.522;7.266;2023-02-21T10:23:11;11.50;99.90
1447;DHT22;717;51.522;7.266;2023-02-21T10:25:43;11.50;99.90
1447;DHT22;717;51.522;7.266;2023-02-21T10:28:17;11.50;99.90
1447;DHT22;717;51.522;7.266;2023-02-21T10:30:47;11.50;99.90
1447;DHT22;717;51.522;7.266;2023-02-21T10:33:16;11.60;99.90
1447;DHT22;717;51.522;7.266;2023-02-21T10:35:45;11.60;99.90
1447;DHT22;717;51.522;7.266;2023-02-21T10:38:19;11.70;99.90
1447;DHT22;717;51.522;7.266;2023-02-21T10:40:51;11.70;99.90
1447;DHT22;717;51.522;7.266;2023-02-21T10:43:22;11.70;99.90
1447;DHT22;717;51.522;7.266;2023-02-21T10:45:57;11.70;99.90
1447;DHT22;717;51.522;7.266;2023-02-21T10:48:29;11.70;99.90
1447;DHT22;717;51.522;7.266;2023-02-21T10:51:09;11.80;99.90
1447;DHT22;717;51.522;7.266;2023-02-21T10:53:42;11.80;99.90
1447;DHT22;717;51.522;7.266;2023-02-21T10:56:26;11.90;99.90
1447;DHT22;717;51.522;7.266;2023-02-21T10:58:57;11.80;99.90
1447;DHT22;717;51.522;7.266;2023-02-21T11:01:33;11.90;99.90
1447;DHT22;717;51.522;7.266;2023-02-21T11:04:06;11.90;99.90
1447;DHT22;717;51.522;7.266;2023-02-21T11:06:36;11.90;99.90
1447;DHT22;717;51.522;7.266;2023-02-21T11:09:31;11.90;99.90
1447;DHT22;717;51.522;7.266;2023-02-21T11:12:04;11.90;99.90
1447;DHT22;717;51.522;7.266;2023-02-21T11:14:34;11.80;99.90
1447;DHT22;717;51.522;7.266;2023-02-21T11:17:14;11.80;99.90
1447;DHT22;717;51.522;7.266;2023-02-21T11:19:45;11.80;99.90
1447;DHT22;717;51.522;7.266;2023-02-21T11:22:14;11.90;99.90
1447;DHT22;717;51.522;7.266;2023-02-21T11:25:02;11.90;99.90
1447;DHT22;717;51.522;7.266;2023-02-21T11:27:33;11.80;99.90
1447;DHT22;717;51.522;7.266;2023-02-21T11:30:09;11.80;99.90
1447;DHT22;717;51.522;7.266;2023-02-21T11:32:42;11.80;99.90
1447;DHT22;717;51.522;7.266;2023-02-21T11:35:25;11.80;99.90
1447;DHT22;717;51.522;7.266;2023-02-21T11:37:56;11.80;99.90
1447;DHT22;717;51.522;7.266;2023-02-21T11:40:41;11.80;99.90
1447;DHT22;717;51.522;7.266;2023-02-21T11:43:20;11.80;99.90
1447;DHT22;717;51.522;7.266;2023-02-21T11:45:59;11.80;99.90
1447;DHT22;717;51.522;7.266;2023-02-21T11:48:33;11.90;99.90
1447;DHT22;717;51.522;7.266;2023-02-21T11:51:04;11.90;99.90
1447;DHT22;717;51.522;7.266;2023-02-21T11:53:39;12.00;99.90
1447;DHT22;717;51.522;7.266;2023-02-21T11:56:19;12.00;99.90
1447;DHT22;717;51.522;7.266;2023-02-21T11:58:55;12.00;99.90
1447;DHT22;717;51.522;7.266;2023-02-21T12:01:28;12.00;99.90
1447;DHT22;717;51.522;7.266;2023-02-21T12:04:24;12.00;99.90
1447;DHT22;717;51.522;7.266;2023-02-21T12:07:01;12.10;99.90
1447;DHT22;717;51.522;7.266;2023-02-21T12:09:37;12.10;99.90
1447;DHT22;717;51.522;7.266;2023-02-21T12:12:25;12.10;99.90
1447;DHT22;717;51.522;7.266;2023-02-21T12:15:09;12.20;99.90
1447;DHT22;717;51.522;7.266;2023-02-21T12:17:59;12.20;99.90
1447;DHT22;717;51.522;7.266;2023-02-21T12:23:24;12.30;99.90
1447;DHT22;717;51.522;7.266;2023-02-21T12:26:17;12.30;99.90
1447;DHT22;717;51.522;7.266;2023-02-21T12:29:02;12.30;99.90
1447;DHT22;717;51.522;7.266;2023-02-21T12:31:48;12.30;99.90
1447;DHT22;717;51.522;7.266;2023-02-21T12:34:30;12.40;99.90
1447;DHT22;717;51.522;7.266;2023-02-21T12:37:17;12.40;99.90
1447;DHT22;717;51.522;7.266;2023-02-21T12:39:59;12.40;99.90
1447;DHT22;717;51.522;7.266;2023-02-21T12:42:43;12.50;99.90
1447;DHT22;717;51.522;7.266;2023-02-21T12:45:48;12.50;99.90
1447;DHT22;717;51.522;7.266;2023-02-21T12:48:28;12.50;99.90
1447;DHT22;717;51.522;7.266;2023-02-21T12:51:03;12.60;99.90
1447;DHT22;717;51.522;7.266;2023-02-21T12:53:37;12.70;99.90
1447;DHT22;717;51.522;7.266;2023-02-21T12:56:12;12.70;99.90
1447;DHT22;717;51.522;7.266;2023-02-21T12:58:46;12.70;99.90
1447;DHT22;717;51.522;7.266;2023-02-21T13:01:22;12.80;99.90
1447;DHT22;717;51.522;7.266;2023-02-21T13:04:00;12.70;99.90
1447;DHT22;717;51.522;7.266;2023-02-21T13:06:33;12.80;99.90
1447;DHT22;717;51.522;7.266;2023-02-21T13:09:10;12.80;99.90
1447;DHT22;717;51.522;7.266;2023-02-21T13:11:49;12.70;99.90
1447;DHT22;717;51.522;7.266;2023-02-21T13:14:25;12.80;99.90
1447;DHT22;717;51.522;7.266;2023-02-21T13:17:01;12.80;99.90
1447;DHT22;717;51.522;7.266;2023-02-21T13:19:37;12.70;99.90
1447;DHT22;717;51.522;7.266;2023-02-21T13:22:23;12.80;99.90
1447;DHT22;717;51.522;7.266;2023-02-21T13:25:17;12.80;99.90
1447;DHT22;717;51.522;7.266;2023-02-21T13:27:54;12.90;99.90
1447;DHT22;717;51.522;7.266;2023-02-21T13:30:26;12.90;99.90
1447;DHT22;717;51.522;7.266;2023-02-21T13:32:59;13.00;99.90
1447;DHT22;717;51.522;7.266;2023-02-21T13:35:31;13.00;99.90
1447;DHT22;717;51.522;7.266;2023-02-21T13:38:01;13.00;99.90
1447;DHT22;717;51.522;7.266;2023-02-21T13:40:35;13.10;99.90
1447;DHT22;717;51.522;7.266;2023-02-21T13:43:09;13.00;99.90
1447;DHT22;717;51.522;7.266;2023-02-21T13:45:40;13.10;99.90
1447;DHT22;717;51.522;7.266;2023-02-21T13:48:28;13.10;99.90
1447;DHT22;717;51.522;7.266;2023-02-21T13:50:58;13.00;99.90
1447;DHT22;717;51.522;7.266;2023-02-21T13:53:29;13.00;99.90
1447;DHT22;717;51.522;7.266;2023-02-21T13:56:16;13.00;99.90
1447;DHT22;717;51.522;7.266;2023-02-21T13:58:46;13.00;99.90
1447;DHT22;717;51.522;7.266;2023-02-21T14:01:40;13.10;99.90
1447;DHT22;717;51.522;7.266;2023-02-21T14:07:54;13.20;99.90
1447;DHT22;717;51.522;7.266;2023-02-21T14:10:42;13.20;99.90
1447;DHT22;717;51.522;7.266;2023-02-21T14:13:25;13.20;99.90
1447;DHT22;717;51.522;7.266;2023-02-21T14:15:58;13.20;99.90
1447;DHT22;717;51.522;7.266;2023-02-21T14:18:29;13.20;99.90
1447;DHT22;717;51.522;7.266;2023-02-21T14:21:00;13.30;99.90
1447;DHT22;717;51.522;7.266;2023-02-21T14:23:40;13.30;99.90
1447;DHT22;717;51.522;7.266;2023-02-21T14:29:32;13.20;99.90
1447;DHT22;717;51.522;7.266;2023-02-21T14:32:23;13.10;99.90
1447;DHT22;717;51.522;7.266;2023-02-21T14:34:55;13.10;99.90
1447;DHT22;717;51.522;7.266;2023-02-21T14:37:29;13.10;99.90
1447;DHT22;717;51.522;7.266;2023-02-21T14:40:17;13.20;99.90
1447;DHT22;717;51.522;7.266;2023-02-21T14:42:58;13.20;99.90
1447;DHT22;717;51.522;7.266;2023-02-21T14:45:40;13.20;99.90
1447;DHT22;717;51.522;7.266;2023-02-21T14:48:25;13.20;99.90
1447;DHT22;717;51.522;7.266;2023-02-21T14:54:04;13.20;99.90
1447;DHT22;717;51.522;7.266;2023-02-21T14:57:01;13.10;99.90
1447;DHT22;717;51.522;7.266;2023-02-21T14:59:44;13.10;99.90
1447;DHT22;717;51.522;7.266;2023-02-21T15:02:24;13.20;99.90
1447;DHT22;717;51.522;7.266;2023-02-21T15:05:01;13.20;99.90
1447;DHT22;717;51.522;7.266;2023-02-21T15:07:47;13.20;99.90
1447;DHT22;717;51.522;7.266;2023-02-21T15:10:22;13.10;99.90
1447;DHT22;717;51.522;7.266;2023-02-21T15:12:55;13.10;99.90
1447;DHT22;717;51.522;7.266;2023-02-21T15:15:26;13.10;99.90
1447;DHT22;717;51.522;7.266;2023-02-21T15:18:05;13.20;99.90
1447;DHT22;717;51.522;7.266;2023-02-21T15:20:36;13.10;99.90
1447;DHT22;717;51.522;7.266;2023-02-21T15:23:13;13.20;99.90
1447;DHT22;717;51.522;7.266;2023-02-21T15:25:52;13.10;99.90
1447;DHT22;717;51.522;7.266;2023-02-21T15:28:25;13.20;99.90
1447;DHT22;717;51.522;7.266;2023-02-21T15:30:57;13.10;99.90
1447;DHT22;717;51.522;7.266;2023-02-21T15:33:29;13.20;99.90
1447;DHT22;717;51.522;7.266;2023-02-21T15:36:02;13.20;99.90
1447;DHT22;717;51.522;7.266;2023-02-21T15:38:35;13.30;99.90
1447;DHT22;717;51.522;7.266;2023-02-21T15:41:08;13.30;99.90
1447;DHT22;717;51.522;7.266;2023-02-21T15:43:46;13.30;99.90
1447;DHT22;717;51.522;7.266;2023-02-21T15:46:20;13.30;99.90
1447;DHT22;717;51.522;7.266;2023-02-21T15:48:50;13.30;99.90
1447;DHT22;717;51.522;7.266;2023-02-21T15:51:20;13.30;99.90
1447;DHT22;717;51.522;7.266;2023-02-21T15:54:07;13.30;99.90
1447;DHT22;717;51.522;7.266;2023-02-21T15:56:35;13.30;99.90
1447;DHT22;717;51.522;7.266;2023-02-21T15:59:17;13.40;99.90
1447;DHT22;717;51.522;7.266;2023-02-21T16:02:19;13.30;99.90
1447;DHT22;717;51.522;7.266;2023-02-21T16:04:50;13.40;99.90
1447;DHT22;717;51.522;7.266;2023-02-21T16:07:22;13.40;99.90
1447;DHT22;717;51.522;7.266;2023-02-21T16:09:59;13.40;99.90
1447;DHT22;717;51.522;7.266;2023-02-21T16:12:32;13.40;99.90
1447;DHT22;717;51.522;7.266;2023-02-21T16:15:07;13.40;99.90
1447;DHT22;717;51.522;7.266;2023-02-21T16:17:51;13.40;99.90
1447;DHT22;717;51.522;7.266;2023-02-21T16:20:22;13.40;99.90
1447;DHT22;717;51.522;7.266;2023-02-21T16:23:13;13.40;99.90
1447;DHT22;717;51.522;7.266;2023-02-21T16:25:58;13.40;99.90
1447;DHT22;717;51.522;7.266;2023-02-21T16:28:27;13.40;99.90
1447;DHT22;717;51.522;7.266;2023-02-21T16:31:00;13.40;99.90
1447;DHT22;717;51.522;7.266;2023-02-21T16:33:30;13.40;99.90
1447;DHT22;717;51.522;7.266;2023-02-21T16:36:00;13.50;99.90
1447;DHT22;717;51.522;7.266;2023-02-21T16:38:31;13.50;99.90
1447;DHT22;717;51.522;7.266;2023-02-21T16:41:00;13.50;99.90
1447;DHT22;717;51.522;7.266;2023-02-21T16:43:29;13.60;99.90
1447;DHT22;717;51.522;7.266;2023-02-21T16:46:00;13.60;99.90
1447;DHT22;717;51.522;7.266;2023-02-21T16:48:29;13.60;99.90
1447;DHT22;717;51.522;7.266;2023-02-21T16:51:00;13.60;99.90
1447;DHT22;717;51.522;7.266;2023-02-21T16:53:30;13.60;99.90
1447;DHT22;717;51.522;7.266;2023-02-21T16:55:59;13.60;99.90
1447;DHT22;717;51.522;7.266;2023-02-21T16:58:30;13.70;99.90
1447;DHT22;717;51.522;7.266;2023-02-21T17:01:03;13.70;99.90
1447;DHT22;717;51.522;7.266;2023-02-21T17:03:32;13.70;99.90
1447;DHT22;717;51.522;7.266;2023-02-21T17:06:01;13.70;99.90
1447;DHT22;717;51.522;7.266;2023-02-21T17:08:30;13.70;99.90
1447;DHT22;717;51.522;7.266;2023-02-21T17:10:59;13.70;99.90
1447;DHT22;717;51.522;7.266;2023-02-21T17:13:27;13.70;99.90
1447;DHT22;717;51.522;7.266;2023-02-21T17:15:56;13.70;99.90
1447;DHT22;717;51.522;7.266;2023-02-21T17:18:27;13.70;99.90
1447;DHT22;717;51.522;7.266;2023-02-21T17:20:56;13.70;99.90
1447;DHT22;717;51.522;7.266;2023-02-21T17:23:24;13.70;99.90
1447;DHT22;717;51.522;7.266;2023-02-21T17:25:53;13.70;99.90
1447;DHT22;717;51.522;7.266;2023-02-21T17:28:22;13.80;99.90